sensor_id;sensor_type;location;lat;lon;timestamp;temperature;humidity
79500;SHT31;76397;53.172;18.140;2024-03-08T00:00:01;-1.27;81.19
79500;SHT31;76397;53.172;18.140;2024-03-08T00:02:58;-1.31;81.17
79500;SHT31;76397;53.172;18.140;2024-03-08T00:05:27;-1.37;81.30
79500;SHT31;76397;53.172;18.140;2024-03-08T00:07:54;-1.41;81.48
79500;SHT31;76397;53.172;18.140;2024-03-08T00:10:21;-1.47;81.50
79500;SHT31;76397;53.172;18.140;2024-03-08T00:12:48;-1.49;81.53
79500;SHT31;76397;53.172;18.140;2024-03-08T00:15:17;-1.47;81.71
79500;SHT31;76397;53.172;18.140;2024-03-08T00:17:44;-1.44;81.86
79500;SHT31;76397;53.172;18.140;2024-03-08T00:20:11;-1.40;81.73
79500;SHT31;76397;53.172;18.140;2024-03-08T00:22:39;-1.36;81.72
79500;SHT31;76397;53.172;18.140;2024-03-08T00:25:07;-1.35;81.55
79500;SHT31;76397;53.172;18.140;2024-03-08T00:27:38;-1.32;81.54
79500;SHT31;76397;53.172;18.140;2024-03-08T00:30:05;-1.35;81.55
79500;SHT31;76397;53.172;18.140;2024-03-08T00:32:32;-1.35;81.70
79500;SHT31;76397;53.172;18.140;2024-03-08T00:34:59;-1.40;81.73
79500;SHT31;76397;53.172;18.140;2024-03-08T00:37:26;-1.44;81.86
79500;SHT31;76397;53.172;18.140;2024-03-08T00:39:53;-1.48;81.99
79500;SHT31;76397;53.172;18.140;2024-03-08T00:42:20;-1.48;82.17
79500;SHT31;76397;53.172;18.140;2024-03-08T00:44:47;-1.47;82.10
79500;SHT31;76397;53.172;18.140;2024-03-08T00:47:17;-1.45;82.10
79500;SHT31;76397;53.172;18.140;2024-03-08T00:49:44;-1.42;82.13
79500;SHT31;76397;53.172;18.140;2024-03-08T00:52:11;-1.38;82.12
79500;SHT31;76397;53.172;18.140;2024-03-08T00:54:37;-1.34;82.04
79500;SHT31;76397;53.172;18.140;2024-03-08T00:57:04;-1.33;81.79
79500;SHT31;76397;53.172;18.140;2024-03-08T00:59:33;-1.31;81.55
79500;SHT31;76397;53.172;18.140;2024-03-08T01:02:00;-1.30;81.26
79500;SHT31;76397;53.172;18.140;2024-03-08T01:04:28;-1.33;80.91
79500;SHT31;76397;53.172;18.140;2024-03-08T01:06:58;-1.40;80.57
79500;SHT31;76397;53.172;18.140;2024-03-08T01:09:25;-1.50;80.55
79500;SHT31;76397;53.172;18.140;2024-03-08T01:11:53;-1.61;80.78
79500;SHT31;76397;53.172;18.140;2024-03-08T01:14:21;-1.71;80.93
79500;SHT31;76397;53.172;18.140;2024-03-08T01:16:50;-1.76;81.16
79500;SHT31;76397;53.172;18.140;2024-03-08T01:19:17;-1.75;81.28
79500;SHT31;76397;53.172;18.140;2024-03-08T01:21:43;-1.69;81.29
79500;SHT31;76397;53.172;18.140;2024-03-08T01:24:10;-1.58;81.05
79500;SHT31;76397;53.172;18.140;2024-03-08T01:26:37;-1.53;80.62
79500;SHT31;76397;53.172;18.140;2024-03-08T01:29:05;-1.50;80.50
79500;SHT31;76397;53.172;18.140;2024-03-08T01:31:32;-1.55;80.59
79500;SHT31;76397;53.172;18.140;2024-03-08T01:33:59;-1.63;80.81
79500;SHT31;76397;53.172;18.140;2024-03-08T01:36:26;-1.71;81.48
79500;SHT31;76397;53.172;18.140;2024-03-08T01:38:53;-1.77;81.94
79500;SHT31;76397;53.172;18.140;2024-03-08T01:41:19;-1.78;82.32
79500;SHT31;76397;53.172;18.140;2024-03-08T01:43:46;-1.76;82.49
79500;SHT31;76397;53.172;18.140;2024-03-08T01:46:17;-1.73;82.60
79500;SHT31;76397;53.172;18.140;2024-03-08T01:48:48;-1.70;82.68
79500;SHT31;76397;53.172;18.140;2024-03-08T01:51:17;-1.68;82.74
79500;SHT31;76397;53.172;18.140;2024-03-08T01:53:44;-1.66;82.86
79500;SHT31;76397;53.172;18.140;2024-03-08T01:56:13;-1.62;82.89
79500;SHT31;76397;53.172;18.140;2024-03-08T01:58:41;-1.62;82.93
79500;SHT31;76397;53.172;18.140;2024-03-08T02:01:11;-1.64;83.06
79500;SHT31;76397;53.172;18.140;2024-03-08T02:03:41;-1.66;83.23
79500;SHT31;76397;53.172;18.140;2024-03-08T02:06:13;-1.67;83.39
79500;SHT31;76397;53.172;18.140;2024-03-08T02:08:41;-1.68;83.35
79500;SHT31;76397;53.172;18.140;2024-03-08T02:11:12;-1.65;83.41
79500;SHT31;76397;53.172;18.140;2024-03-08T02:13:40;-1.61;83.46
79500;SHT31;76397;53.172;18.140;2024-03-08T02:16:07;-1.58;83.42
79500;SHT31;76397;53.172;18.140;2024-03-08T02:18:34;-1.54;83.27
79500;SHT31;76397;53.172;18.140;2024-03-08T02:21:02;-1.53;83.27
79500;SHT31;76397;53.172;18.140;2024-03-08T02:23:30;-1.55;83.31
79500;SHT31;76397;53.172;18.140;2024-03-08T02:25:59;-1.57;83.30
79500;SHT31;76397;53.172;18.140;2024-03-08T02:28:26;-1.59;83.26
79500;SHT31;76397;53.172;18.140;2024-03-08T02:30:53;-1.64;83.33
79500;SHT31;76397;53.172;18.140;2024-03-08T02:33:22;-1.67;83.48
79500;SHT31;76397;53.172;18.140;2024-03-08T02:35:50;-1.66;83.70
79500;SHT31;76397;53.172;18.140;2024-03-08T02:38:21;-1.66;83.59
79500;SHT31;76397;53.172;18.140;2024-03-08T02:40:50;-1.64;83.44
79500;SHT31;76397;53.172;18.140;2024-03-08T02:43:19;-1.61;83.26
79500;SHT31;76397;53.172;18.140;2024-03-08T02:45:50;-1.59;83.12
79500;SHT31;76397;53.172;18.140;2024-03-08T02:48:19;-1.56;83.03
79500;SHT31;76397;53.172;18.140;2024-03-08T02:50:47;-1.51;82.95
79500;SHT31;76397;53.172;18.140;2024-03-08T02:53:14;-1.52;82.80
79500;SHT31;76397;53.172;18.140;2024-03-08T02:55:41;-1.57;82.41
79500;SHT31;76397;53.172;18.140;2024-03-08T02:58:08;-1.61;82.42
79500;SHT31;76397;53.172;18.140;2024-03-08T03:00:36;-1.62;82.46
79500;SHT31;76397;53.172;18.140;2024-03-08T03:03:05;-1.69;82.25
79500;SHT31;76397;53.172;18.140;2024-03-08T03:05:33;-1.76;82.33
79500;SHT31;76397;53.172;18.140;2024-03-08T03:08:00;-1.84;82.52
79500;SHT31;76397;53.172;18.140;2024-03-08T03:10:27;-1.88;82.71
79500;SHT31;76397;53.172;18.140;2024-03-08T03:12:54;-1.89;82.91
79500;SHT31;76397;53.172;18.140;2024-03-08T03:15:21;-1.87;83.01
79500;SHT31;76397;53.172;18.140;2024-03-08T03:17:49;-1.85;83.01
79500;SHT31;76397;53.172;18.140;2024-03-08T03:20:17;-1.78;82.87
79500;SHT31;76397;53.172;18.140;2024-03-08T03:22:59;-1.71;82.68
79500;SHT31;76397;53.172;18.140;2024-03-08T03:25:29;-1.68;82.58
79500;SHT31;76397;53.172;18.140;2024-03-08T03:28:01;-1.70;82.60
79500;SHT31;76397;53.172;18.140;2024-03-08T03:30:29;-1.77;82.79
79500;SHT31;76397;53.172;18.140;2024-03-08T03:33:02;-1.85;83.08
79500;SHT31;76397;53.172;18.140;2024-03-08T03:35:36;-1.89;83.24
79500;SHT31;76397;53.172;18.140;2024-03-08T03:38:03;-1.94;83.41
79500;SHT31;76397;53.172;18.140;2024-03-08T03:40:30;-1.94;83.52
79500;SHT31;76397;53.172;18.140;2024-03-08T03:42:57;-1.93;83.62
79500;SHT31;76397;53.172;18.140;2024-03-08T03:45:24;-1.88;83.70
79500;SHT31;76397;53.172;18.140;2024-03-08T03:47:51;-1.84;83.84
79500;SHT31;76397;53.172;18.140;2024-03-08T03:50:18;-1.79;83.98
79500;SHT31;76397;53.172;18.140;2024-03-08T03:52:46;-1.74;84.06
79500;SHT31;76397;53.172;18.140;2024-03-08T03:55:13;-1.69;84.03
79500;SHT31;76397;53.172;18.140;2024-03-08T03:57:41;-1.68;83.98
79500;SHT31;76397;53.172;18.140;2024-03-08T04:00:08;-1.72;84.03
79500;SHT31;76397;53.172;18.140;2024-03-08T04:02:39;-1.73;84.12
79500;SHT31;76397;53.172;18.140;2024-03-08T04:05:07;-1.74;84.30
79500;SHT31;76397;53.172;18.140;2024-03-08T04:07:36;-1.76;84.33
79500;SHT31;76397;53.172;18.140;2024-03-08T04:10:05;-1.75;84.55
79500;SHT31;76397;53.172;18.140;2024-03-08T04:12:35;-1.69;84.68
79500;SHT31;76397;53.172;18.140;2024-03-08T04:15:02;-1.64;84.80
79500;SHT31;76397;53.172;18.140;2024-03-08T04:17:29;-1.59;85.01
79500;SHT31;76397;53.172;18.140;2024-03-08T04:19:56;-1.52;85.03
79500;SHT31;76397;53.172;18.140;2024-03-08T04:22:23;-1.48;84.91
79500;SHT31;76397;53.172;18.140;2024-03-08T04:24:50;-1.40;84.85
79500;SHT31;76397;53.172;18.140;2024-03-08T04:27:17;-1.39;84.66
79500;SHT31;76397;53.172;18.140;2024-03-08T04:29:44;-1.40;84.61
79500;SHT31;76397;53.172;18.140;2024-03-08T04:32:10;-1.46;84.51
79500;SHT31;76397;53.172;18.140;2024-03-08T04:34:39;-1.50;84.62
79500;SHT31;76397;53.172;18.140;2024-03-08T04:37:06;-1.54;84.70
79500;SHT31;76397;53.172;18.140;2024-03-08T04:39:37;-1.55;84.66
79500;SHT31;76397;53.172;18.140;2024-03-08T04:42:03;-1.54;84.81
79500;SHT31;76397;53.172;18.140;2024-03-08T04:44:36;-1.53;84.79
79500;SHT31;76397;53.172;18.140;2024-03-08T04:47:04;-1.41;85.28
79500;SHT31;76397;53.172;18.140;2024-03-08T04:49:34;-1.39;85.18
79500;SHT31;76397;53.172;18.140;2024-03-08T04:52:01;-1.42;84.81
79500;SHT31;76397;53.172;18.140;2024-03-08T04:54:30;-1.45;84.72
79500;SHT31;76397;53.172;18.140;2024-03-08T04:56:57;-1.47;84.73
79500;SHT31;76397;53.172;18.140;2024-03-08T04:59:26;-1.52;84.67
79500;SHT31;76397;53.172;18.140;2024-03-08T05:01:54;-1.57;84.59
79500;SHT31;76397;53.172;18.140;2024-03-08T05:04:20;-1.63;84.50
79500;SHT31;76397;53.172;18.140;2024-03-08T05:06:47;-1.67;84.60
79500;SHT31;76397;53.172;18.140;2024-03-08T05:09:14;-1.71;84.58
79500;SHT31;76397;53.172;18.140;2024-03-08T05:11:42;-1.72;84.70
79500;SHT31;76397;53.172;18.140;2024-03-08T05:14:10;-1.71;84.82
79500;SHT31;76397;53.172;18.140;2024-03-08T05:16:44;-1.69;84.74
79500;SHT31;76397;53.172;18.140;2024-03-08T05:19:18;-1.69;84.77
79500;SHT31;76397;53.172;18.140;2024-03-08T05:21:47;-1.67;84.70
79500;SHT31;76397;53.172;18.140;2024-03-08T05:24:15;-1.65;84.70
79500;SHT31;76397;53.172;18.140;2024-03-08T05:26:43;-1.60;84.66
79500;SHT31;76397;53.172;18.140;2024-03-08T05:29:11;-1.60;84.48
79500;SHT31;76397;53.172;18.140;2024-03-08T05:31:48;-1.61;84.40
79500;SHT31;76397;53.172;18.140;2024-03-08T05:34:16;-1.64;84.40
79500;SHT31;76397;53.172;18.140;2024-03-08T05:36:45;-1.65;84.43
79500;SHT31;76397;53.172;18.140;2024-03-08T05:39:13;-1.63;84.34
79500;SHT31;76397;53.172;18.140;2024-03-08T05:41:40;-1.66;84.27
79500;SHT31;76397;53.172;18.140;2024-03-08T05:44:10;-1.62;84.38
79500;SHT31;76397;53.172;18.140;2024-03-08T05:46:39;-1.51;84.32
79500;SHT31;76397;53.172;18.140;2024-03-08T05:49:06;-1.46;84.10
79500;SHT31;76397;53.172;18.140;2024-03-08T05:51:36;-1.42;83.96
79500;SHT31;76397;53.172;18.140;2024-03-08T05:54:08;-1.32;83.84
79500;SHT31;76397;53.172;18.140;2024-03-08T05:56:37;-1.28;83.61
79500;SHT31;76397;53.172;18.140;2024-03-08T05:59:10;-1.19;83.52
79500;SHT31;76397;53.172;18.140;2024-03-08T06:01:38;-1.11;83.31
79500;SHT31;76397;53.172;18.140;2024-03-08T06:04:07;-1.00;83.13
79500;SHT31;76397;53.172;18.140;2024-03-08T06:06:34;-0.97;82.94
79500;SHT31;76397;53.172;18.140;2024-03-08T06:09:01;-0.92;82.85
79500;SHT31;76397;53.172;18.140;2024-03-08T06:11:35;-0.85;82.73
79500;SHT31;76397;53.172;18.140;2024-03-08T06:14:02;-0.83;82.57
79500;SHT31;76397;53.172;18.140;2024-03-08T06:16:28;-0.83;82.52
79500;SHT31;76397;53.172;18.140;2024-03-08T06:18:58;-0.80;82.52
79500;SHT31;76397;53.172;18.140;2024-03-08T06:21:25;-0.77;82.37
79500;SHT31;76397;53.172;18.140;2024-03-08T06:23:54;-0.72;82.39
79500;SHT31;76397;53.172;18.140;2024-03-08T06:26:21;-0.52;82.48
79500;SHT31;76397;53.172;18.140;2024-03-08T06:28:48;-0.34;82.22
79500;SHT31;76397;53.172;18.140;2024-03-08T06:31:15;-0.27;81.94
79500;SHT31;76397;53.172;18.140;2024-03-08T06:33:42;-0.30;81.75
79500;SHT31;76397;53.172;18.140;2024-03-08T06:36:10;-0.31;81.80
79500;SHT31;76397;53.172;18.140;2024-03-08T06:38:39;-0.26;81.77
79500;SHT31;76397;53.172;18.140;2024-03-08T06:41:09;-0.17;81.71
79500;SHT31;76397;53.172;18.140;2024-03-08T06:43:44;-0.17;81.63
79500;SHT31;76397;53.172;18.140;2024-03-08T06:46:14;-0.09;81.71
79500;SHT31;76397;53.172;18.140;2024-03-08T06:48:41;-0.02;81.71
79500;SHT31;76397;53.172;18.140;2024-03-08T06:51:08;0.01;81.58
79500;SHT31;76397;53.172;18.140;2024-03-08T06:53:37;0.13;81.55
79500;SHT31;76397;53.172;18.140;2024-03-08T06:56:04;0.25;81.39
79500;SHT31;76397;53.172;18.140;2024-03-08T06:58:31;0.32;81.22
79500;SHT31;76397;53.172;18.140;2024-03-08T07:00:59;0.36;81.19
79500;SHT31;76397;53.172;18.140;2024-03-08T07:03:27;0.45;81.18
79500;SHT31;76397;53.172;18.140;2024-03-08T07:05:56;0.52;81.04
79500;SHT31;76397;53.172;18.140;2024-03-08T07:08:24;0.48;80.92
79500;SHT31;76397;53.172;18.140;2024-03-08T07:10:53;0.54;80.96
79500;SHT31;76397;53.172;18.140;2024-03-08T07:13:20;0.60;80.90
79500;SHT31;76397;53.172;18.140;2024-03-08T07:15:47;0.61;80.84
79500;SHT31;76397;53.172;18.140;2024-03-08T07:18:14;0.56;80.94
79500;SHT31;76397;53.172;18.140;2024-03-08T07:20:41;0.51;80.90
79500;SHT31;76397;53.172;18.140;2024-03-08T07:23:09;0.51;80.89
79500;SHT31;76397;53.172;18.140;2024-03-08T07:25:37;0.58;80.92
79500;SHT31;76397;53.172;18.140;2024-03-08T07:28:05;0.68;80.85
79500;SHT31;76397;53.172;18.140;2024-03-08T07:30:32;0.73;80.74
79500;SHT31;76397;53.172;18.140;2024-03-08T07:33:11;0.79;80.79
79500;SHT31;76397;53.172;18.140;2024-03-08T07:35:38;0.84;80.69
79500;SHT31;76397;53.172;18.140;2024-03-08T07:38:07;0.91;80.65
79500;SHT31;76397;53.172;18.140;2024-03-08T07:40:39;0.98;80.65
79500;SHT31;76397;53.172;18.140;2024-03-08T07:43:10;0.98;80.58
79500;SHT31;76397;53.172;18.140;2024-03-08T07:45:38;1.02;80.74
79500;SHT31;76397;53.172;18.140;2024-03-08T07:48:06;1.03;80.65
79500;SHT31;76397;53.172;18.140;2024-03-08T07:50:39;1.09;80.70
79500;SHT31;76397;53.172;18.140;2024-03-08T07:53:07;1.12;80.40
79500;SHT31;76397;53.172;18.140;2024-03-08T07:55:35;1.71;80.14
79500;SHT31;76397;53.172;18.140;2024-03-08T07:58:02;3.87;78.26
79500;SHT31;76397;53.172;18.140;2024-03-08T08:00:30;6.11;76.26
79500;SHT31;76397;53.172;18.140;2024-03-08T08:02:59;8.04;74.64
79500;SHT31;76397;53.172;18.140;2024-03-08T08:05:27;9.59;72.94
79500;SHT31;76397;53.172;18.140;2024-03-08T08:07:54;10.85;71.69
79500;SHT31;76397;53.172;18.140;2024-03-08T08:10:21;11.99;70.13
79500;SHT31;76397;53.172;18.140;2024-03-08T08:12:48;12.80;68.51
79500;SHT31;76397;53.172;18.140;2024-03-08T08:15:15;13.33;67.18
79500;SHT31;76397;53.172;18.140;2024-03-08T08:17:42;14.15;67.44
79500;SHT31;76397;53.172;18.140;2024-03-08T08:20:10;14.99;66.63
79500;SHT31;76397;53.172;18.140;2024-03-08T08:22:39;15.64;66.03
79500;SHT31;76397;53.172;18.140;2024-03-08T08:25:07;16.08;64.66
79500;SHT31;76397;53.172;18.140;2024-03-08T08:27:34;16.43;63.94
79500;SHT31;76397;53.172;18.140;2024-03-08T08:30:04;16.97;64.43
79500;SHT31;76397;53.172;18.140;2024-03-08T08:32:37;17.76;63.47
79500;SHT31;76397;53.172;18.140;2024-03-08T08:35:10;18.37;60.72
79500;SHT31;76397;53.172;18.140;2024-03-08T08:37:39;18.76;57.46
79500;SHT31;76397;53.172;18.140;2024-03-08T08:40:06;19.04;56.09
79500;SHT31;76397;53.172;18.140;2024-03-08T08:42:40;19.19;55.97
79500;SHT31;76397;53.172;18.140;2024-03-08T08:45:08;19.25;54.41
79500;SHT31;76397;53.172;18.140;2024-03-08T08:47:36;18.32;54.61
79500;SHT31;76397;53.172;18.140;2024-03-08T08:50:03;17.96;54.68
79500;SHT31;76397;53.172;18.140;2024-03-08T08:52:31;18.34;54.15
79500;SHT31;76397;53.172;18.140;2024-03-08T08:54:59;18.54;52.93
79500;SHT31;76397;53.172;18.140;2024-03-08T08:57:26;18.82;52.03
79500;SHT31;76397;53.172;18.140;2024-03-08T08:59:54;19.08;51.56
79500;SHT31;76397;53.172;18.140;2024-03-08T09:02:21;19.06;50.63
79500;SHT31;76397;53.172;18.140;2024-03-08T09:04:48;18.50;49.71
79500;SHT31;76397;53.172;18.140;2024-03-08T09:07:15;17.81;49.94
79500;SHT31;76397;53.172;18.140;2024-03-08T09:09:42;17.51;50.02
79500;SHT31;76397;53.172;18.140;2024-03-08T09:12:10;17.66;49.09
79500;SHT31;76397;53.172;18.140;2024-03-08T09:14:43;18.08;48.06
79500;SHT31;76397;53.172;18.140;2024-03-08T09:17:09;17.75;47.71
79500;SHT31;76397;53.172;18.140;2024-03-08T09:19:36;17.60;47.20
79500;SHT31;76397;53.172;18.140;2024-03-08T09:22:06;17.62;47.11
79500;SHT31;76397;53.172;18.140;2024-03-08T09:24:33;17.88;46.53
79500;SHT31;76397;53.172;18.140;2024-03-08T09:26:59;18.26;45.40
79500;SHT31;76397;53.172;18.140;2024-03-08T09:29:26;18.26;44.72
79500;SHT31;76397;53.172;18.140;2024-03-08T09:31:53;18.59;43.65
79500;SHT31;76397;53.172;18.140;2024-03-08T09:34:20;19.01;43.02
79500;SHT31;76397;53.172;18.140;2024-03-08T09:36:46;19.09;42.86
79500;SHT31;76397;53.172;18.140;2024-03-08T09:39:13;19.15;42.23
79500;SHT31;76397;53.172;18.140;2024-03-08T09:41:43;19.35;41.22
79500;SHT31;76397;53.172;18.140;2024-03-08T09:44:10;19.37;40.26
79500;SHT31;76397;53.172;18.140;2024-03-08T09:46:37;19.36;40.02
79500;SHT31;76397;53.172;18.140;2024-03-08T09:49:03;19.34;39.13
79500;SHT31;76397;53.172;18.140;2024-03-08T09:51:33;19.14;39.40
79500;SHT31;76397;53.172;18.140;2024-03-08T09:54:04;18.67;39.53
79500;SHT31;76397;53.172;18.140;2024-03-08T09:56:34;18.32;39.78
79500;SHT31;76397;53.172;18.140;2024-03-08T09:59:02;18.42;39.13
79500;SHT31;76397;53.172;18.140;2024-03-08T10:01:38;18.36;38.75
79500;SHT31;76397;53.172;18.140;2024-03-08T10:04:05;18.00;38.78
79500;SHT31;76397;53.172;18.140;2024-03-08T10:06:33;17.88;38.74
79500;SHT31;76397;53.172;18.140;2024-03-08T10:08:59;18.00;38.15
79500;SHT31;76397;53.172;18.140;2024-03-08T10:11:26;17.71;38.20
79500;SHT31;76397;53.172;18.140;2024-03-08T10:13:53;17.67;38.05
79500;SHT31;76397;53.172;18.140;2024-03-08T10:16:21;17.73;37.70
79500;SHT31;76397;53.172;18.140;2024-03-08T10:18:50;17.81;37.77
79500;SHT31;76397;53.172;18.140;2024-03-08T10:21:18;17.76;38.17
79500;SHT31;76397;53.172;18.140;2024-03-08T10:23:45;17.34;37.52
79500;SHT31;76397;53.172;18.140;2024-03-08T10:26:17;16.83;38.31
79500;SHT31;76397;53.172;18.140;2024-03-08T10:28:48;16.88;38.62
79500;SHT31;76397;53.172;18.140;2024-03-08T10:31:16;16.81;38.46
79500;SHT31;76397;53.172;18.140;2024-03-08T10:33:44;16.33;37.95
79500;SHT31;76397;53.172;18.140;2024-03-08T10:36:11;16.18;38.37
79500;SHT31;76397;53.172;18.140;2024-03-08T10:38:41;15.95;37.78
79500;SHT31;76397;53.172;18.140;2024-03-08T10:41:13;15.72;37.85
79500;SHT31;76397;53.172;18.140;2024-03-08T10:49:34;14.01;38.96
79500;SHT31;76397;53.172;18.140;2024-03-08T10:52:05;13.47;39.21
79500;SHT31;76397;53.172;18.140;2024-03-08T10:54:36;12.82;39.45
79500;SHT31;76397;53.172;18.140;2024-03-08T10:57:07;12.41;39.89
79500;SHT31;76397;53.172;18.140;2024-03-08T10:59:37;12.04;40.64
79500;SHT31;76397;53.172;18.140;2024-03-08T11:02:05;11.72;40.68
79500;SHT31;76397;53.172;18.140;2024-03-08T11:04:32;11.44;40.87
79500;SHT31;76397;53.172;18.140;2024-03-08T11:07:00;11.10;41.42
79500;SHT31;76397;53.172;18.140;2024-03-08T11:09:34;10.78;42.50
79500;SHT31;76397;53.172;18.140;2024-03-08T11:14:59;10.52;42.62
79500;SHT31;76397;53.172;18.140;2024-03-08T11:19:57;10.18;42.78
79500;SHT31;76397;53.172;18.140;2024-03-08T11:22:28;10.04;43.01
79500;SHT31;76397;53.172;18.140;2024-03-08T11:24:59;9.82;42.03
79500;SHT31;76397;53.172;18.140;2024-03-08T11:27:37;9.73;42.69
79500;SHT31;76397;53.172;18.140;2024-03-08T11:30:07;9.70;42.06
79500;SHT31;76397;53.172;18.140;2024-03-08T11:32:38;9.68;42.30
79500;SHT31;76397;53.172;18.140;2024-03-08T11:35:20;9.67;43.12
79500;SHT31;76397;53.172;18.140;2024-03-08T11:37:49;9.54;43.64
79500;SHT31;76397;53.172;18.140;2024-03-08T11:40:17;9.48;44.32
79500;SHT31;76397;53.172;18.140;2024-03-08T11:42:46;9.45;44.92
79500;SHT31;76397;53.172;18.140;2024-03-08T11:45:14;9.35;45.18
79500;SHT31;76397;53.172;18.140;2024-03-08T11:47:43;9.28;45.78
79500;SHT31;76397;53.172;18.140;2024-03-08T11:50:14;9.21;46.23
79500;SHT31;76397;53.172;18.140;2024-03-08T11:52:42;9.26;46.80
79500;SHT31;76397;53.172;18.140;2024-03-08T11:55:10;9.26;46.51
79500;SHT31;76397;53.172;18.140;2024-03-08T11:57:39;9.16;47.07
79500;SHT31;76397;53.172;18.140;2024-03-08T12:00:06;9.12;47.27
79500;SHT31;76397;53.172;18.140;2024-03-08T12:03:00;9.05;46.91
79500;SHT31;76397;53.172;18.140;2024-03-08T12:05:32;9.06;47.56
79500;SHT31;76397;53.172;18.140;2024-03-08T12:08:00;8.99;47.96
79500;SHT31;76397;53.172;18.140;2024-03-08T12:10:28;8.99;48.55
79500;SHT31;76397;53.172;18.140;2024-03-08T12:12:57;9.07;48.76
79500;SHT31;76397;53.172;18.140;2024-03-08T12:15:29;9.19;48.43
79500;SHT31;76397;53.172;18.140;2024-03-08T12:18:00;9.24;48.05
79500;SHT31;76397;53.172;18.140;2024-03-08T12:20:28;9.28;47.60
79500;SHT31;76397;53.172;18.140;2024-03-08T12:22:58;9.29;48.29
79500;SHT31;76397;53.172;18.140;2024-03-08T12:25:32;9.32;48.02
79500;SHT31;76397;53.172;18.140;2024-03-08T12:28:07;9.30;48.01
79500;SHT31;76397;53.172;18.140;2024-03-08T12:30:45;9.32;47.85
79500;SHT31;76397;53.172;18.140;2024-03-08T12:33:15;9.29;48.13
79500;SHT31;76397;53.172;18.140;2024-03-08T12:35:50;9.29;48.32
79500;SHT31;76397;53.172;18.140;2024-03-08T12:38:21;9.26;48.52
79500;SHT31;76397;53.172;18.140;2024-03-08T12:40:56;9.31;48.48
79500;SHT31;76397;53.172;18.140;2024-03-08T12:43:25;9.37;48.72
79500;SHT31;76397;53.172;18.140;2024-03-08T12:45:52;9.38;48.44
79500;SHT31;76397;53.172;18.140;2024-03-08T12:48:19;9.28;48.53
79500;SHT31;76397;53.172;18.140;2024-03-08T12:50:47;9.32;48.88
79500;SHT31;76397;53.172;18.140;2024-03-08T12:53:14;9.37;48.96
79500;SHT31;76397;53.172;18.140;2024-03-08T12:55:41;9.26;49.45
79500;SHT31;76397;53.172;18.140;2024-03-08T12:58:07;9.27;49.07
79500;SHT31;76397;53.172;18.140;2024-03-08T13:00:35;9.19;48.78
79500;SHT31;76397;53.172;18.140;2024-03-08T13:03:06;9.13;49.18
79500;SHT31;76397;53.172;18.140;2024-03-08T13:05:33;9.22;49.17
79500;SHT31;76397;53.172;18.140;2024-03-08T13:08:00;9.23;48.88
79500;SHT31;76397;53.172;18.140;2024-03-08T13:10:27;9.21;48.60
79500;SHT31;76397;53.172;18.140;2024-03-08T13:12:54;9.20;48.79
79500;SHT31;76397;53.172;18.140;2024-03-08T13:15:21;9.19;49.02
79500;SHT31;76397;53.172;18.140;2024-03-08T13:17:48;9.16;48.79
79500;SHT31;76397;53.172;18.140;2024-03-08T13:20:15;9.19;48.63
79500;SHT31;76397;53.172;18.140;2024-03-08T13:22:46;9.23;48.95
79500;SHT31;76397;53.172;18.140;2024-03-08T13:25:15;9.38;49.15
79500;SHT31;76397;53.172;18.140;2024-03-08T13:27:42;9.38;49.24
79500;SHT31;76397;53.172;18.140;2024-03-08T13:30:09;9.36;49.52
79500;SHT31;76397;53.172;18.140;2024-03-08T13:32:40;9.49;49.33
79500;SHT31;76397;53.172;18.140;2024-03-08T13:35:13;9.44;48.81
79500;SHT31;76397;53.172;18.140;2024-03-08T13:37:40;9.45;48.85
79500;SHT31;76397;53.172;18.140;2024-03-08T13:40:08;9.58;49.28
79500;SHT31;76397;53.172;18.140;2024-03-08T13:42:40;9.67;48.93
79500;SHT31;76397;53.172;18.140;2024-03-08T13:45:07;9.64;48.72
79500;SHT31;76397;53.172;18.140;2024-03-08T13:47:39;9.49;48.91
79500;SHT31;76397;53.172;18.140;2024-03-08T13:50:08;9.39;49.14
79500;SHT31;76397;53.172;18.140;2024-03-08T13:52:44;9.37;49.16
79500;SHT31;76397;53.172;18.140;2024-03-08T13:55:11;9.30;49.46
79500;SHT31;76397;53.172;18.140;2024-03-08T13:57:39;9.19;49.51
79500;SHT31;76397;53.172;18.140;2024-03-08T14:00:06;9.10;49.40
79500;SHT31;76397;53.172;18.140;2024-03-08T14:02:39;9.03;49.83
79500;SHT31;76397;53.172;18.140;2024-03-08T14:05:07;9.03;49.93
79500;SHT31;76397;53.172;18.140;2024-03-08T14:07:35;9.11;49.61
79500;SHT31;76397;53.172;18.140;2024-03-08T14:10:02;9.11;49.07
79500;SHT31;76397;53.172;18.140;2024-03-08T14:12:30;9.01;48.83
79500;SHT31;76397;53.172;18.140;2024-03-08T14:14:56;8.92;49.35
79500;SHT31;76397;53.172;18.140;2024-03-08T14:17:26;8.93;49.53
79500;SHT31;76397;53.172;18.140;2024-03-08T14:19:54;8.96;49.54
79500;SHT31;76397;53.172;18.140;2024-03-08T14:22:21;8.93;49.32
79500;SHT31;76397;53.172;18.140;2024-03-08T14:24:47;8.92;49.61
79500;SHT31;76397;53.172;18.140;2024-03-08T14:27:16;8.94;49.57
79500;SHT31;76397;53.172;18.140;2024-03-08T14:29:44;8.88;49.59
79500;SHT31;76397;53.172;18.140;2024-03-08T14:32:12;8.83;49.53
79500;SHT31;76397;53.172;18.140;2024-03-08T14:34:39;8.81;49.85
79500;SHT31;76397;53.172;18.140;2024-03-08T14:37:05;8.83;50.09
79500;SHT31;76397;53.172;18.140;2024-03-08T14:39:37;8.86;49.78
79500;SHT31;76397;53.172;18.140;2024-03-08T14:42:04;8.78;49.81
79500;SHT31;76397;53.172;18.140;2024-03-08T14:44:32;8.64;49.63
79500;SHT31;76397;53.172;18.140;2024-03-08T14:46:59;8.52;50.01
79500;SHT31;76397;53.172;18.140;2024-03-08T14:49:26;8.43;50.21
79500;SHT31;76397;53.172;18.140;2024-03-08T14:51:55;8.35;50.46
79500;SHT31;76397;53.172;18.140;2024-03-08T14:54:24;8.34;50.72
79500;SHT31;76397;53.172;18.140;2024-03-08T14:56:52;8.66;50.65
79500;SHT31;76397;53.172;18.140;2024-03-08T14:59:19;9.20;49.93
79500;SHT31;76397;53.172;18.140;2024-03-08T15:01:46;9.21;50.04
79500;SHT31;76397;53.172;18.140;2024-03-08T15:04:13;9.53;49.47
79500;SHT31;76397;53.172;18.140;2024-03-08T15:06:41;9.84;48.57
79500;SHT31;76397;53.172;18.140;2024-03-08T15:09:09;10.16;48.33
79500;SHT31;76397;53.172;18.140;2024-03-08T15:11:46;10.61;48.19
79500;SHT31;76397;53.172;18.140;2024-03-08T15:14:15;10.78;47.39
79500;SHT31;76397;53.172;18.140;2024-03-08T15:16:46;10.67;47.43
79500;SHT31;76397;53.172;18.140;2024-03-08T15:19:15;10.06;48.01
79500;SHT31;76397;53.172;18.140;2024-03-08T15:21:42;9.44;48.83
79500;SHT31;76397;53.172;18.140;2024-03-08T15:24:12;8.95;49.45
79500;SHT31;76397;53.172;18.140;2024-03-08T15:26:41;8.60;49.91
79500;SHT31;76397;53.172;18.140;2024-03-08T15:29:09;8.33;50.47
79500;SHT31;76397;53.172;18.140;2024-03-08T15:31:39;8.13;50.86
79500;SHT31;76397;53.172;18.140;2024-03-08T15:34:09;8.01;51.12
79500;SHT31;76397;53.172;18.140;2024-03-08T15:36:37;7.85;51.45
79500;SHT31;76397;53.172;18.140;2024-03-08T15:39:09;7.72;51.64